createdAt,value
2023-02-20T00:00:45.177Z,0.00
2023-02-20T00:01:45.154Z,0.00
2023-02-20T00:02:45.152Z,0.00
2023-02-20T00:03:45.218Z,0.00
2023-02-20T00:04:45.124Z,0.00
2023-02-20T00:05:45.112Z,0.00
2023-02-20T00:06:45.113Z,0.00
2023-02-20T00:07:45.100Z,0.00
2023-02-20T00:08:45.069Z,0.00
2023-02-20T00:09:45.079Z,0.00
2023-02-20T00:10:45.052Z,0.00
2023-02-20T00:11:45.062Z,0.00
2023-02-20T00:12:45.066Z,0.00
2023-02-20T00:13:45.037Z,0.00
2023-02-20T00:14:45.016Z,0.00
2023-02-20T00:15:45.035Z,0.00
2023-02-20T00:16:45.018Z,0.00
2023-02-20T00:17:45.021Z,0.00
2023-02-20T00:18:44.975Z,0.00
2023-02-20T00:19:44.976Z,0.00
2023-02-20T00:20:44.957Z,0.00
2023-02-20T00:21:44.960Z,0.00
2023-02-20T00:22:44.935Z,0.00
2023-02-20T00:23:44.961Z,0.00
2023-02-20T00:24:44.914Z,0.00
2023-02-20T00:25:44.918Z,0.00
2023-02-20T00:26:44.891Z,0.00
2023-02-20T00:27:44.895Z,0.00
2023-02-20T00:28:44.891Z,0.00
2023-02-20T00:29:44.873Z,0.00
2023-02-20T00:30:44.863Z,0.00
2023-02-20T00:31:44.905Z,0.00
2023-02-20T00:32:44.831Z,0.00
2023-02-20T00:33:44.841Z,0.00
2023-02-20T00:34:44.831Z,0.00
2023-02-20T00:35:44.824Z,0.00
2023-02-20T00:36:44.791Z,0.00
2023-02-20T00:37:44.795Z,0.00
2023-02-20T00:38:44.780Z,0.00
2023-02-20T00:39:44.772Z,0.00
2023-02-20T00:40:44.776Z,0.00
2023-02-20T00:41:44.759Z,0.00
2023-02-20T00:42:44.753Z,0.00
2023-02-20T00:43:44.738Z,0.00
2023-02-20T00:44:44.711Z,0.00
2023-02-20T00:45:44.716Z,0.00
2023-02-20T00:46:44.765Z,0.00
2023-02-20T00:47:44.696Z,0.00
2023-02-20T00:48:44.666Z,0.00
2023-02-20T00:49:44.707Z,0.00
2023-02-20T00:50:44.647Z,0.00
2023-02-20T00:51:44.674Z,0.00
2023-02-20T00:52:44.651Z,0.00
2023-02-20T00:53:44.642Z,0.00
2023-02-20T00:54:44.606Z,0.00
2023-02-20T00:55:44.630Z,0.00
2023-02-20T00:56:44.590Z,0.00
2023-02-20T00:57:44.595Z,0.00
2023-02-20T00:58:44.564Z,0.00
2023-02-20T00:59:44.576Z,0.00
2023-02-20T01:00:44.547Z,0.00
2023-02-20T01:01:44.659Z,0.00
2023-02-20T01:02:44.535Z,0.00
2023-02-20T01:03:44.558Z,0.00
2023-02-20T01:04:44.503Z,0.00
2023-02-20T01:05:44.517Z,0.00
2023-02-20T01:06:44.498Z,0.00
2023-02-20T01:07:44.516Z,0.00
2023-02-20T01:08:44.462Z,0.00
2023-02-20T01:09:44.469Z,0.00
2023-02-20T01:10:44.446Z,0.00
2023-02-20T01:11:44.454Z,0.00
2023-02-20T01:12:44.476Z,0.00
2023-02-20T01:13:44.425Z,0.00
2023-02-20T01:14:44.409Z,0.00
2023-02-20T01:15:44.415Z,0.00
2023-02-20T01:16:44.381Z,0.00
2023-02-20T01:17:44.392Z,0.00
2023-02-20T01:18:44.374Z,0.00
2023-02-20T01:19:44.383Z,0.00
2023-02-20T01:20:44.352Z,0.00
2023-02-20T01:21:44.363Z,0.00
2023-02-20T01:22:44.322Z,0.00
2023-02-20T01:23:44.320Z,0.00
2023-02-20T01:24:44.301Z,0.00
2023-02-20T01:25:44.323Z,0.00
2023-02-20T01:26:44.292Z,0.00
2023-02-20T01:27:44.283Z,0.00
2023-02-20T01:28:44.253Z,0.00
2023-02-20T01:29:44.266Z,0.00
2023-02-20T01:30:44.253Z,0.00
2023-02-20T01:31:44.344Z,0.00
2023-02-20T01:32:44.220Z,0.00
2023-02-20T01:33:44.219Z,0.00
2023-02-20T01:34:44.201Z,0.00
2023-02-20T01:35:44.200Z,0.00
2023-02-20T01:36:44.209Z,0.00
2023-02-20T01:37:44.199Z,0.00
2023-02-20T01:38:44.164Z,0.00
2023-02-20T01:39:44.169Z,0.00
2023-02-20T01:40:44.138Z,0.00
2023-02-20T01:41:44.164Z,0.00
2023-02-20T01:42:44.136Z,0.00
2023-02-20T01:43:44.122Z,0.00
2023-02-20T01:44:44.100Z,0.00
2023-02-20T01:45:44.114Z,0.00
2023-02-20T01:46:44.131Z,0.00
2023-02-20T01:47:44.101Z,0.00
2023-02-20T01:48:44.102Z,0.00
2023-02-20T01:49:44.067Z,0.00
2023-02-20T01:50:44.046Z,0.00
2023-02-20T01:51:44.054Z,0.00
2023-02-20T01:52:44.022Z,0.00
2023-02-20T01:53:44.031Z,0.00
2023-02-20T01:54:44.021Z,0.00
2023-02-20T01:55:44.009Z,0.00
2023-02-20T01:56:43.979Z,0.00
2023-02-20T01:57:43.986Z,0.00
2023-02-20T01:58:43.989Z,0.00
2023-02-20T01:59:43.997Z,0.00
2023-02-20T02:00:44.029Z,0.00
2023-02-20T02:01:43.959Z,0.00
2023-02-20T02:02:43.920Z,0.00
2023-02-20T02:03:43.941Z,0.00
2023-02-20T02:04:43.902Z,0.00
2023-02-20T02:05:43.917Z,0.00
2023-02-20T02:06:43.882Z,0.00
2023-02-20T02:07:43.934Z,0.00
2023-02-20T02:08:43.876Z,0.00
2023-02-20T02:09:43.893Z,0.00
2023-02-20T02:10:43.844Z,0.00
2023-02-20T02:11:43.843Z,0.00
2023-02-20T02:12:43.818Z,0.00
2023-02-20T02:13:43.825Z,0.00
2023-02-20T02:14:43.811Z,0.00
2023-02-20T02:15:43.842Z,0.00
2023-02-20T02:16:43.778Z,0.00
2023-02-20T02:17:43.788Z,0.00
2023-02-20T02:18:43.794Z,0.00
2023-02-20T02:19:43.776Z,0.00
2023-02-20T02:20:43.749Z,0.00
2023-02-20T02:21:43.772Z,0.00
2023-02-20T02:22:43.718Z,0.00
2023-02-20T02:23:43.715Z,0.00
2023-02-20T02:24:43.691Z,0.00
2023-02-20T02:25:43.700Z,0.00
2023-02-20T02:26:43.682Z,0.00
2023-02-20T02:27:43.704Z,0.00
2023-02-20T02:28:43.701Z,0.00
2023-02-20T02:29:43.682Z,0.00
2023-02-20T02:30:43.680Z,0.00
2023-02-20T02:31:43.760Z,0.00
2023-02-20T02:32:43.632Z,0.00
2023-02-20T02:33:43.628Z,0.00
2023-02-20T02:34:43.658Z,0.00
2023-02-20T02:35:43.590Z,0.00
2023-02-20T02:36:43.628Z,0.00
2023-02-20T02:37:43.617Z,0.00
2023-02-20T02:38:43.558Z,0.00
2023-02-20T02:39:43.566Z,0.00
2023-02-20T02:40:43.536Z,0.00
2023-02-20T02:41:43.525Z,0.00
2023-02-20T02:42:43.538Z,0.00
2023-02-20T02:43:43.510Z,0.00
2023-02-20T02:44:43.485Z,0.00
2023-02-20T02:45:43.514Z,0.00
2023-02-20T02:46:43.461Z,0.00
2023-02-20T02:47:43.475Z,0.00
2023-02-20T02:48:43.495Z,0.00
2023-02-20T02:49:43.454Z,0.00
2023-02-20T02:50:43.428Z,0.00
2023-02-20T02:51:43.439Z,0.00
2023-02-20T02:52:43.409Z,0.00
2023-02-20T02:53:43.417Z,0.00
2023-02-20T02:54:43.416Z,0.00
2023-02-20T02:55:43.416Z,0.00
2023-02-20T02:56:43.364Z,0.00
2023-02-20T02:57:43.388Z,0.00
2023-02-20T02:58:43.351Z,0.00
2023-02-20T02:59:43.346Z,0.00
2023-02-20T03:00:43.419Z,0.00
2023-02-20T03:01:43.345Z,0.00
2023-02-20T03:02:43.330Z,0.00
2023-02-20T03:03:43.319Z,0.00
2023-02-20T03:04:43.310Z,0.00
2023-02-20T03:05:43.297Z,0.00
2023-02-20T03:06:43.291Z,0.00
2023-02-20T03:07:43.270Z,0.00
2023-02-20T03:08:43.245Z,0.00
2023-02-20T03:09:43.261Z,0.00
2023-02-20T03:10:43.225Z,0.00
2023-02-20T03:11:43.258Z,0.00
2023-02-20T03:12:43.218Z,0.00
2023-02-20T03:13:43.200Z,0.00
2023-02-20T03:14:43.176Z,0.00
2023-02-20T03:15:43.180Z,0.00
2023-02-20T03:16:43.207Z,0.00
2023-02-20T03:17:43.159Z,0.00
2023-02-20T03:18:43.159Z,0.00
2023-02-20T03:19:43.146Z,0.00
2023-02-20T03:20:43.119Z,0.00
2023-02-20T03:21:43.128Z,0.00
2023-02-20T03:22:43.102Z,0.00
2023-02-20T03:23:43.126Z,0.00
2023-02-20T03:24:43.104Z,0.00
2023-02-20T03:25:43.068Z,0.00
2023-02-20T03:26:43.075Z,0.00
2023-02-20T03:27:43.062Z,0.00
2023-02-20T03:28:43.048Z,0.00
2023-02-20T03:29:43.047Z,0.00
2023-02-20T03:30:43.039Z,0.00
2023-02-20T03:31:43.186Z,0.00
2023-02-20T03:32:43.039Z,0.00
2023-02-20T03:33:43.013Z,0.00
2023-02-20T03:34:43.012Z,0.00
2023-02-20T03:35:42.968Z,0.00
2023-02-20T03:36:42.983Z,0.00
2023-02-20T03:37:42.948Z,0.00
2023-02-20T03:38:42.994Z,0.00
2023-02-20T03:39:42.972Z,0.00
2023-02-20T03:40:42.948Z,0.00
2023-02-20T03:41:42.906Z,0.00
2023-02-20T03:42:42.921Z,0.00
2023-02-20T03:43:42.921Z,0.00
2023-02-20T03:44:42.899Z,0.00
2023-02-20T03:45:42.973Z,0.00
2023-02-20T03:46:42.889Z,0.00
2023-02-20T03:47:42.885Z,0.00
2023-02-20T03:48:42.884Z,0.00
2023-02-20T03:49:42.905Z,0.00
2023-02-20T03:50:42.856Z,0.00
2023-02-20T03:51:42.801Z,0.00
2023-02-20T03:52:42.877Z,0.00
2023-02-20T03:53:42.784Z,0.00
2023-02-20T03:54:42.797Z,0.00
2023-02-20T03:55:42.817Z,0.00
2023-02-20T03:56:42.822Z,0.00
2023-02-20T03:57:42.757Z,0.00
2023-02-20T03:58:42.747Z,0.00
2023-02-20T03:59:42.751Z,0.00
2023-02-20T04:00:42.740Z,0.00
2023-02-20T04:01:42.693Z,0.00
2023-02-20T04:02:42.706Z,0.00
2023-02-20T04:03:42.677Z,0.00
2023-02-20T04:04:42.703Z,0.00
2023-02-20T04:05:42.666Z,0.00
2023-02-20T04:06:42.658Z,0.00
2023-02-20T04:07:42.673Z,0.00
2023-02-20T04:08:42.639Z,0.00
2023-02-20T04:09:42.618Z,0.00
2023-02-20T04:10:42.623Z,0.00
2023-02-20T04:11:42.596Z,0.00
2023-02-20T04:12:42.604Z,0.00
2023-02-20T04:13:42.594Z,0.00
2023-02-20T04:14:42.578Z,0.00
2023-02-20T04:15:42.558Z,0.00
2023-02-20T04:16:42.610Z,0.00
2023-02-20T04:17:42.537Z,0.00
2023-02-20T04:18:42.568Z,0.00
2023-02-20T04:19:42.521Z,0.00
2023-02-20T04:20:42.482Z,1.00
2023-02-20T04:21:42.440Z,1.00
2023-02-20T04:22:42.443Z,1.00
2023-02-20T04:23:42.439Z,1.00
2023-02-20T04:24:42.467Z,2.00
2023-02-20T04:25:42.401Z,2.00
2023-02-20T04:26:42.427Z,2.00
2023-02-20T04:27:42.378Z,1.00
2023-02-20T04:28:42.382Z,1.00
2023-02-20T04:29:42.407Z,2.00
2023-02-20T04:30:42.476Z,1.00
2023-02-20T04:31:42.387Z,1.00
2023-02-20T04:32:42.350Z,1.00
2023-02-20T04:33:42.327Z,1.00
2023-02-20T04:34:42.324Z,1.00
2023-02-20T04:35:42.316Z,1.00
2023-02-20T04:36:42.299Z,1.00
2023-02-20T04:37:42.435Z,1.00
2023-02-20T04:38:42.552Z,1.00
2023-02-20T04:39:42.252Z,1.00
2023-02-20T04:40:42.274Z,1.00
2023-02-20T04:41:42.248Z,1.00
2023-02-20T04:42:42.235Z,1.00
2023-02-20T04:43:42.251Z,1.00
2023-02-20T04:44:42.214Z,1.00
2023-02-20T04:45:42.212Z,1.00
2023-02-20T04:46:42.193Z,1.00
2023-02-20T04:47:42.494Z,1.00
2023-02-20T04:48:42.202Z,1.00
2023-02-20T04:49:42.151Z,1.00
2023-02-20T04:50:42.160Z,1.00
2023-02-20T04:51:42.126Z,1.00
2023-02-20T04:52:42.136Z,1.00
2023-02-20T04:53:42.131Z,1.00
2023-02-20T04:54:42.107Z,1.00
2023-02-20T04:55:42.177Z,0.00
2023-02-20T04:56:42.154Z,0.00
2023-02-20T04:57:42.122Z,0.00
2023-02-20T04:58:42.130Z,0.00
2023-02-20T04:59:42.110Z,0.00
2023-02-20T05:00:42.112Z,0.00
2023-02-20T05:01:42.193Z,0.00
2023-02-20T05:02:42.114Z,0.00
2023-02-20T05:03:42.061Z,0.00
2023-02-20T05:04:42.138Z,0.00
2023-02-20T05:05:42.047Z,0.00
2023-02-20T05:06:42.046Z,0.00
2023-02-20T05:07:42.027Z,0.00
2023-02-20T05:08:42.056Z,0.00
2023-02-20T05:09:42.002Z,0.00
2023-02-20T05:10:42.014Z,0.00
2023-02-20T05:11:42.014Z,0.00
2023-02-20T05:12:41.997Z,0.00
2023-02-20T05:13:41.971Z,0.00
2023-02-20T05:14:41.987Z,0.00
2023-02-20T05:15:42.026Z,0.00
2023-02-20T05:16:41.948Z,0.00
2023-02-20T05:17:41.936Z,0.00
2023-02-20T05:18:41.934Z,0.00
2023-02-20T05:19:41.913Z,0.00
2023-02-20T05:20:41.927Z,0.00
2023-02-20T05:21:41.881Z,0.00
2023-02-20T05:22:41.894Z,0.00
2023-02-20T05:23:41.877Z,0.00
2023-02-20T05:24:41.874Z,0.00
2023-02-20T05:25:41.861Z,0.00
2023-02-20T05:26:41.868Z,0.00
2023-02-20T05:27:41.774Z,1.00
2023-02-20T05:28:41.781Z,1.00
2023-02-20T05:29:41.748Z,1.00
2023-02-20T05:30:41.857Z,1.00
2023-02-20T05:31:41.877Z,2.00
2023-02-20T05:32:41.753Z,2.00
2023-02-20T05:33:41.709Z,2.00
2023-02-20T05:34:41.721Z,2.00
2023-02-20T05:35:41.710Z,3.00
2023-02-20T05:36:41.698Z,1.00
2023-02-20T05:37:41.674Z,3.00
2023-02-20T05:38:41.673Z,4.00
2023-02-20T05:39:41.647Z,4.00
2023-02-20T05:40:41.652Z,7.00
2023-02-20T05:41:41.666Z,10.00
2023-02-20T05:42:41.645Z,10.00
2023-02-20T05:43:41.624Z,10.00
2023-02-20T05:44:41.613Z,10.00
2023-02-20T05:45:41.585Z,10.00
2023-02-20T05:46:41.695Z,10.00
2023-02-20T05:47:41.596Z,10.00
2023-02-20T05:48:41.572Z,9.00
2023-02-20T05:49:41.548Z,10.00
2023-02-20T05:50:41.553Z,10.00
2023-02-20T05:51:41.528Z,10.00
2023-02-20T05:52:41.537Z,11.00
2023-02-20T05:53:41.531Z,7.00
2023-02-20T05:54:41.592Z,0.00
2023-02-20T05:55:41.570Z,0.00
2023-02-20T05:56:41.567Z,0.00
2023-02-20T05:57:41.544Z,0.00
2023-02-20T05:58:41.528Z,0.00
2023-02-20T05:59:41.528Z,0.00
2023-02-20T06:00:41.511Z,0.00
2023-02-20T06:01:41.517Z,0.00
2023-02-20T06:02:41.497Z,0.00
2023-02-20T06:03:41.507Z,0.00
2023-02-20T06:04:41.526Z,0.00
2023-02-20T06:05:41.475Z,0.00
2023-02-20T06:06:41.461Z,0.00
2023-02-20T06:07:41.424Z,0.00
2023-02-20T06:08:41.480Z,0.00
2023-02-20T06:09:41.431Z,0.00
2023-02-20T06:10:41.461Z,0.00
2023-02-20T06:11:41.391Z,0.00
2023-02-20T06:12:41.392Z,0.00
2023-02-20T06:13:41.365Z,0.00
2023-02-20T06:14:41.395Z,0.00
2023-02-20T06:15:41.347Z,0.00
2023-02-20T06:16:41.351Z,0.00
2023-02-20T06:17:43.810Z,0.00
2023-02-20T06:18:41.335Z,0.00
2023-02-20T06:19:41.329Z,0.00
2023-02-20T06:20:41.305Z,0.00
2023-02-20T06:21:41.295Z,0.00
2023-02-20T06:22:41.269Z,0.00
2023-02-20T06:23:41.272Z,0.00
2023-02-20T06:24:41.286Z,0.00
2023-02-20T06:25:41.267Z,0.00
2023-02-20T06:26:41.274Z,0.00
2023-02-20T06:27:41.259Z,0.00
2023-02-20T06:28:41.221Z,0.00
2023-02-20T06:29:41.238Z,0.00
2023-02-20T06:30:41.289Z,0.00
2023-02-20T06:31:41.317Z,0.00
2023-02-20T06:32:41.183Z,0.00
2023-02-20T06:33:41.175Z,0.00
2023-02-20T06:34:41.168Z,0.00
2023-02-20T06:35:41.155Z,0.00
2023-02-20T06:36:41.134Z,0.00
2023-02-20T06:37:41.169Z,0.00
2023-02-20T06:38:41.112Z,0.00
2023-02-20T06:39:41.120Z,0.00
2023-02-20T06:40:41.091Z,0.00
2023-02-20T06:41:41.108Z,0.00
2023-02-20T06:42:41.090Z,0.00
2023-02-20T06:43:41.076Z,0.00
2023-02-20T06:44:41.078Z,0.00
2023-02-20T06:45:41.066Z,0.00
2023-02-20T06:46:41.070Z,0.00
2023-02-20T06:47:41.054Z,0.00
2023-02-20T06:48:40.973Z,1.00
2023-02-20T06:49:41.019Z,0.00
2023-02-20T06:50:41.046Z,0.00
2023-02-20T06:51:41.000Z,0.00
2023-02-20T06:52:40.939Z,1.00
2023-02-20T06:53:40.932Z,1.00
2023-02-20T06:54:40.915Z,1.00
2023-02-20T06:55:40.906Z,1.00
2023-02-20T06:56:41.023Z,1.00
2023-02-20T06:57:40.952Z,0.00
2023-02-20T06:58:40.921Z,0.00
2023-02-20T06:59:40.928Z,0.00
2023-02-20T07:00:40.923Z,0.00
2023-02-20T07:01:41.085Z,0.00
2023-02-20T07:02:40.838Z,2.00
2023-02-20T07:03:40.828Z,2.00
2023-02-20T07:04:40.823Z,2.00
2023-02-20T07:05:40.813Z,2.00
2023-02-20T07:06:40.787Z,2.00
2023-02-20T07:07:40.822Z,2.00
2023-02-20T07:08:40.768Z,2.00
2023-02-20T07:09:42.013Z,2.00
2023-02-20T07:10:40.750Z,1.00
2023-02-20T07:11:40.823Z,0.00
2023-02-20T07:12:40.782Z,0.00
2023-02-20T07:13:40.747Z,1.00
2023-02-20T07:14:40.728Z,1.00
2023-02-20T07:15:40.720Z,1.00
2023-02-20T07:16:40.688Z,1.00
2023-02-20T07:17:40.754Z,0.00
2023-02-20T07:18:40.726Z,0.00
2023-02-20T07:19:40.747Z,0.00
2023-02-20T07:20:40.700Z,0.00
2023-02-20T07:21:40.711Z,0.00
2023-02-20T07:22:40.693Z,0.00
2023-02-20T07:23:40.684Z,0.00
2023-02-20T07:24:40.662Z,0.00
2023-02-20T07:25:40.697Z,0.00
2023-02-20T07:26:40.586Z,1.00
2023-02-20T07:27:40.645Z,0.00
2023-02-20T07:28:40.623Z,0.00
2023-02-20T07:29:40.578Z,1.00
2023-02-20T07:30:40.561Z,1.00
2023-02-20T07:31:40.657Z,1.00
2023-02-20T07:32:40.580Z,0.00
2023-02-20T07:33:40.586Z,0.00
2023-02-20T07:34:42.057Z,1.00
2023-02-20T07:35:40.527Z,1.00
2023-02-20T07:36:40.535Z,0.00
2023-02-20T07:37:40.564Z,0.00
2023-02-20T07:38:40.518Z,0.00
2023-02-20T07:39:40.502Z,2.00
2023-02-20T07:40:40.558Z,1.00
2023-02-20T07:41:40.527Z,0.00
2023-02-20T07:42:40.446Z,1.00
2023-02-20T07:43:40.435Z,2.00
2023-02-20T07:44:40.408Z,2.00
2023-02-20T07:45:40.471Z,2.00
2023-02-20T07:46:40.400Z,2.00
2023-02-20T07:47:40.414Z,1.00
2023-02-20T07:48:40.415Z,0.00
2023-02-20T07:49:40.452Z,0.00
2023-02-20T07:50:40.354Z,1.00
2023-02-20T07:51:40.352Z,1.00
2023-02-20T07:52:40.319Z,1.00
2023-02-20T07:53:40.346Z,1.00
2023-02-20T07:54:40.313Z,1.00
2023-02-20T07:55:40.306Z,1.00
2023-02-20T07:56:40.285Z,8.00
2023-02-20T07:57:40.286Z,8.00
2023-02-20T07:58:40.268Z,8.00
2023-02-20T07:59:40.282Z,8.00
2023-02-20T08:00:40.270Z,9.00
2023-02-20T08:01:40.342Z,2.00
2023-02-20T08:02:40.220Z,2.00
2023-02-20T08:03:40.227Z,2.00
2023-02-20T08:04:40.196Z,1.00
2023-02-20T08:05:48.683Z,1.00
2023-02-20T08:06:40.650Z,15.00
2023-02-20T08:07:40.205Z,15.00
2023-02-20T08:08:40.170Z,14.00
2023-02-20T08:09:40.239Z,14.00
2023-02-20T08:10:40.135Z,15.00
2023-02-20T08:11:40.260Z,15.00
2023-02-20T08:12:40.135Z,13.00
2023-02-20T08:13:40.129Z,10.00
2023-02-20T08:14:40.103Z,9.00
2023-02-20T08:15:40.113Z,10.00
2023-02-20T08:16:40.269Z,9.00
2023-02-20T08:17:46.495Z,0.00
2023-02-20T08:18:40.129Z,0.00
2023-02-20T08:19:40.121Z,0.00
2023-02-20T08:20:40.114Z,0.00
2023-02-20T08:21:40.103Z,0.00
2023-02-20T08:22:42.035Z,2.00
2023-02-20T08:23:40.045Z,2.00
2023-02-20T08:24:40.008Z,2.00
2023-02-20T08:25:40.086Z,1.00
2023-02-20T08:26:39.981Z,1.00
2023-02-20T08:27:40.016Z,4.00
2023-02-20T08:28:40.010Z,1.00
2023-02-20T08:29:39.972Z,1.00
2023-02-20T08:30:39.993Z,1.00
2023-02-20T08:31:40.014Z,4.00
2023-02-20T08:32:40.023Z,7.00
2023-02-20T08:33:39.942Z,7.00
2023-02-20T08:34:39.943Z,5.00
2023-02-20T08:35:39.972Z,2.00
2023-02-20T08:36:39.912Z,6.00
2023-02-20T08:37:39.899Z,3.00
2023-02-20T08:38:39.868Z,1.00
2023-02-20T08:39:39.882Z,1.00
2023-02-20T08:40:39.894Z,4.00
2023-02-20T08:41:39.858Z,5.00
2023-02-20T08:42:39.842Z,6.00
2023-02-20T08:43:39.846Z,4.00
2023-02-20T08:44:39.825Z,6.00
2023-02-20T08:45:39.833Z,5.00
2023-02-20T08:46:39.812Z,2.00
2023-02-20T08:47:39.800Z,2.00
2023-02-20T08:48:39.775Z,2.00
2023-02-20T08:49:39.793Z,4.00
2023-02-20T08:50:39.750Z,6.00
2023-02-20T08:51:39.754Z,4.00
2023-02-20T08:52:39.749Z,5.00
2023-02-20T08:53:39.737Z,2.00
2023-02-20T08:54:39.699Z,4.00
2023-02-20T08:55:39.706Z,6.00
2023-02-20T08:56:39.684Z,6.00
2023-02-20T08:57:39.689Z,6.00
2023-02-20T08:58:39.684Z,4.00
2023-02-20T08:59:39.686Z,2.00
2023-02-20T09:00:39.686Z,2.00
2023-02-20T09:01:39.722Z,1.00
2023-02-20T09:02:39.737Z,1.00
2023-02-20T09:03:39.635Z,2.00
2023-02-20T09:04:39.629Z,2.00
2023-02-20T09:05:39.607Z,2.00
2023-02-20T09:06:39.579Z,2.00
2023-02-20T09:07:39.582Z,3.00
2023-02-20T09:08:39.609Z,5.00
2023-02-20T09:09:39.564Z,5.00
2023-02-20T09:10:39.546Z,5.00
2023-02-20T09:11:39.558Z,5.00
2023-02-20T09:12:39.520Z,5.00
2023-02-20T09:13:39.559Z,4.00
2023-02-20T09:14:39.504Z,2.00
2023-02-20T09:15:39.530Z,2.00
2023-02-20T09:16:39.523Z,2.00
2023-02-20T09:17:39.528Z,5.00
2023-02-20T09:18:39.466Z,1.00
2023-02-20T09:19:39.589Z,2.00
2023-02-20T09:20:39.447Z,1.00
2023-02-20T09:21:39.442Z,4.00
2023-02-20T09:22:39.436Z,5.00
2023-02-20T09:23:39.440Z,6.00
2023-02-20T09:24:39.400Z,7.00
2023-02-20T09:25:39.448Z,6.00
2023-02-20T09:26:39.377Z,2.00
2023-02-20T09:27:39.435Z,2.00
2023-02-20T09:28:39.355Z,3.00
2023-02-20T09:29:39.394Z,5.00
2023-02-20T09:30:39.451Z,5.00
2023-02-20T09:31:39.510Z,4.00
2023-02-20T09:32:39.402Z,4.00
2023-02-20T09:33:39.340Z,2.00
2023-02-20T09:34:39.317Z,1.00
2023-02-20T09:35:39.310Z,1.00
2023-02-20T09:36:39.283Z,5.00
2023-02-20T09:37:39.282Z,2.00
2023-02-20T09:38:39.258Z,2.00
2023-02-20T09:39:39.275Z,2.00
2023-02-20T09:40:39.259Z,2.00
2023-02-20T09:41:39.252Z,2.00
2023-02-20T09:42:39.220Z,3.00
2023-02-20T09:43:39.251Z,2.00
2023-02-20T09:44:39.221Z,1.00
2023-02-20T09:45:39.221Z,4.00
2023-02-20T09:46:39.189Z,1.00
2023-02-20T09:47:39.185Z,1.00
2023-02-20T09:48:39.170Z,1.00
2023-02-20T09:49:39.166Z,4.00
2023-02-20T09:50:39.158Z,2.00
2023-02-20T09:51:39.138Z,4.00
2023-02-20T09:52:39.116Z,4.00
2023-02-20T09:53:39.125Z,4.00
2023-02-20T09:54:39.133Z,4.00
2023-02-20T09:55:39.107Z,4.00
2023-02-20T09:56:39.076Z,5.00
2023-02-20T09:57:39.102Z,5.00
2023-02-20T09:58:39.086Z,5.00
2023-02-20T09:59:39.068Z,5.00
2023-02-20T10:00:39.035Z,4.00
2023-02-20T10:01:39.090Z,2.00
2023-02-20T10:02:39.174Z,2.00
2023-02-20T10:03:39.024Z,2.00
2023-02-20T10:04:38.993Z,2.00
2023-02-20T10:05:39.001Z,1.00
2023-02-20T10:06:38.988Z,1.00
2023-02-20T10:07:39.004Z,3.00
2023-02-20T10:08:38.958Z,5.00
2023-02-20T10:09:39.005Z,5.00
2023-02-20T10:10:38.950Z,5.00
2023-02-20T10:11:38.933Z,2.00
2023-02-20T10:12:42.129Z,1.00
2023-02-20T10:13:38.928Z,2.00
2023-02-20T10:14:38.889Z,2.00
2023-02-20T10:15:38.888Z,2.00
2023-02-20T10:16:38.943Z,3.00
2023-02-20T10:17:38.897Z,1.00
2023-02-20T10:18:38.870Z,1.00
2023-02-20T10:19:38.849Z,5.00
2023-02-20T10:20:38.825Z,5.00
2023-02-20T10:21:38.831Z,6.00
2023-02-20T10:22:38.813Z,2.00
2023-02-20T10:23:38.850Z,1.00
2023-02-20T10:24:38.836Z,0.00
2023-02-20T10:25:38.801Z,5.00
2023-02-20T10:26:38.772Z,6.00
2023-02-20T10:27:38.771Z,2.00
2023-02-20T10:28:38.768Z,1.00
2023-02-20T10:29:38.846Z,0.00
2023-02-20T10:30:38.753Z,1.00
2023-02-20T10:31:38.788Z,1.00
2023-02-20T10:32:38.711Z,1.00
2023-02-20T10:33:38.721Z,1.00
2023-02-20T10:34:38.744Z,0.00
2023-02-20T10:35:38.764Z,0.00
2023-02-20T10:36:38.729Z,0.00
2023-02-20T10:37:47.128Z,2.00
2023-02-20T10:38:38.684Z,1.00
2023-02-20T10:39:38.636Z,5.00
2023-02-20T10:40:38.668Z,6.00
2023-02-20T10:41:38.617Z,2.00
2023-02-20T10:42:38.690Z,0.00
2023-02-20T10:43:38.623Z,2.00
2023-02-20T10:44:50.166Z,3.00
2023-02-20T10:45:38.585Z,5.00
2023-02-20T10:46:48.502Z,6.00
2023-02-20T10:47:38.565Z,1.00
2023-02-20T10:48:38.593Z,6.00
2023-02-20T10:49:38.545Z,2.00
2023-02-20T10:50:38.543Z,1.00
2023-02-20T10:51:38.533Z,4.00
2023-02-20T10:52:38.519Z,2.00
2023-02-20T10:53:38.516Z,2.00
2023-02-20T10:54:38.511Z,3.00
2023-02-20T10:55:38.482Z,5.00
2023-02-20T10:56:38.478Z,5.00
2023-02-20T10:57:38.459Z,5.00
2023-02-20T10:58:38.471Z,1.00
2023-02-20T10:59:38.451Z,5.00
2023-02-20T11:00:38.445Z,5.00
2023-02-20T11:01:38.545Z,5.00
2023-02-20T11:02:38.413Z,3.00
2023-02-20T11:03:38.394Z,1.00
2023-02-20T11:04:38.466Z,1.00
2023-02-20T11:05:38.373Z,1.00
2023-02-20T11:06:38.379Z,1.00
2023-02-20T11:07:38.348Z,1.00
2023-02-20T11:08:38.366Z,2.00
2023-02-20T11:09:38.335Z,2.00
2023-02-20T11:10:38.355Z,1.00
2023-02-20T11:11:38.320Z,1.00
2023-02-20T11:12:38.338Z,3.00
2023-02-20T11:13:38.299Z,4.00
2023-02-20T11:14:41.012Z,2.00
2023-02-20T11:15:38.292Z,2.00
2023-02-20T11:16:38.272Z,3.00
2023-02-20T11:17:38.253Z,5.00
2023-02-20T11:18:38.396Z,0.00
2023-02-20T11:19:38.268Z,2.00
2023-02-20T11:20:38.244Z,2.00
2023-02-20T11:21:38.258Z,5.00
2023-02-20T11:22:38.222Z,5.00
2023-02-20T11:23:38.215Z,5.00
2023-02-20T11:24:38.216Z,5.00
2023-02-20T11:25:38.201Z,1.00
2023-02-20T11:26:38.170Z,2.00
2023-02-20T11:27:38.190Z,1.00
2023-02-20T11:28:38.177Z,1.00
2023-02-20T11:29:38.166Z,2.00
2023-02-20T11:30:38.213Z,2.00
2023-02-20T11:31:38.230Z,4.00
2023-02-20T11:32:38.138Z,2.00
2023-02-20T11:33:38.115Z,2.00
2023-02-20T11:34:38.108Z,2.00
2023-02-20T11:35:38.092Z,3.00
2023-02-20T11:36:38.077Z,4.00
2023-02-20T11:37:52.682Z,2.00
2023-02-20T11:38:38.106Z,2.00
2023-02-20T11:39:38.061Z,1.00
2023-02-20T11:40:38.056Z,1.00
2023-02-20T11:41:38.013Z,4.00
2023-02-20T11:42:38.060Z,4.00
2023-02-20T11:43:37.997Z,4.00
2023-02-20T11:44:38.002Z,4.00
2023-02-20T11:45:38.011Z,4.00
2023-02-20T11:46:38.087Z,4.00
2023-02-20T11:47:37.959Z,4.00
2023-02-20T11:48:40.648Z,4.00
2023-02-20T11:49:37.936Z,4.00
2023-02-20T11:50:37.949Z,4.00
2023-02-20T11:51:37.951Z,4.00
2023-02-20T11:52:37.928Z,4.00
2023-02-20T11:53:37.895Z,4.00
2023-02-20T11:54:37.893Z,4.00
2023-02-20T11:55:37.877Z,4.00
2023-02-20T11:56:37.902Z,4.00
2023-02-20T11:57:37.897Z,2.00
2023-02-20T11:58:37.869Z,4.00
2023-02-20T11:59:37.844Z,4.00
2023-02-20T12:00:37.835Z,4.00
2023-02-20T12:01:37.821Z,4.00
2023-02-20T12:02:37.890Z,4.00
2023-02-20T12:03:37.793Z,4.00
2023-02-20T12:04:37.803Z,4.00
2023-02-20T12:05:37.839Z,4.00
2023-02-20T12:06:38.830Z,4.00
2023-02-20T12:07:37.773Z,4.00
2023-02-20T12:08:37.795Z,2.00
2023-02-20T12:09:37.729Z,4.00
2023-02-20T12:10:37.748Z,1.00
2023-02-20T12:11:37.713Z,5.00
2023-02-20T12:12:37.716Z,1.00
2023-02-20T12:13:37.722Z,1.00
2023-02-20T12:14:37.696Z,1.00
2023-02-20T12:15:37.673Z,1.00
2023-02-20T12:16:37.688Z,2.00
2023-02-20T12:17:37.659Z,5.00
2023-02-20T12:18:37.667Z,1.00
2023-02-20T12:19:37.650Z,1.00
2023-02-20T12:20:37.636Z,1.00
2023-02-20T12:21:37.611Z,2.00
2023-02-20T12:22:37.675Z,4.00
2023-02-20T12:23:37.594Z,3.00
2023-02-20T12:24:37.620Z,1.00
2023-02-20T12:25:37.569Z,1.00
2023-02-20T12:26:38.495Z,3.00
2023-02-20T12:27:37.582Z,1.00
2023-02-20T12:28:37.570Z,1.00
2023-02-20T12:29:37.530Z,2.00
2023-02-20T12:30:37.610Z,2.00
2023-02-20T12:31:37.602Z,2.00
2023-02-20T12:32:37.542Z,2.00
2023-02-20T12:33:37.487Z,1.00
2023-02-20T12:34:37.493Z,1.00
2023-02-20T12:35:37.482Z,2.00
2023-02-20T12:36:37.496Z,4.00
2023-02-20T12:37:37.486Z,4.00
2023-02-20T12:38:37.483Z,4.00
2023-02-20T12:39:37.432Z,4.00
2023-02-20T12:40:37.433Z,2.00
2023-02-20T12:41:37.440Z,1.00
2023-02-20T12:42:37.425Z,1.00
2023-02-20T12:43:37.395Z,1.00
2023-02-20T12:44:37.430Z,1.00
2023-02-20T12:45:37.372Z,1.00
2023-02-20T12:46:37.441Z,1.00
2023-02-20T12:47:37.375Z,2.00
2023-02-20T12:48:37.394Z,4.00
2023-02-20T12:49:37.336Z,4.00
2023-02-20T12:50:37.363Z,3.00
2023-02-20T12:51:37.308Z,1.00
2023-02-20T12:52:37.325Z,2.00
2023-02-20T12:53:37.296Z,2.00
2023-02-20T12:54:37.304Z,4.00
2023-02-20T12:55:37.291Z,1.00
2023-02-20T12:56:37.274Z,2.00
2023-02-20T12:57:37.254Z,4.00
2023-02-20T12:58:37.280Z,5.00
2023-02-20T12:59:37.246Z,2.00
2023-02-20T13:00:37.303Z,2.00
2023-02-20T13:01:40.107Z,2.00
2023-02-20T13:02:42.128Z,2.00
2023-02-20T13:03:37.217Z,4.00
2023-02-20T13:04:37.199Z,4.00
2023-02-20T13:05:37.174Z,2.00
2023-02-20T13:06:37.195Z,1.00
2023-02-20T13:07:37.156Z,1.00
2023-02-20T13:08:37.177Z,1.00
2023-02-20T13:09:37.148Z,1.00
2023-02-20T13:10:37.132Z,1.00
2023-02-20T13:11:37.109Z,1.00
2023-02-20T13:12:37.143Z,1.00
2023-02-20T13:13:37.084Z,1.00
2023-02-20T13:14:37.094Z,1.00
2023-02-20T13:15:37.080Z,1.00
2023-02-20T13:16:37.076Z,1.00
2023-02-20T13:17:37.067Z,1.00